RJSR(METAR)
02/01 19:00
METAR RJSR 011000Z 27028G45KT 8000 FEW005 SCT010 BKN020 03/M01 Q1002
RMK 1ST005 3ST010 6CU020 A2960=
戻る
トップページへ戻る
IMOC Co,.Ltd.